الصفحة الرئيسية
METAR-TAF:

METAR-TAF

مطار :

Needles Airport

نيدليس, كاليفورنيا, الولايات المتحدة

دائرة عرض: 34-45-58N, خط طول: 114-37-24W, ارتفاع: 300 متر

مراقبة الطقس الحالي

تاريخ ووقت الإصدار 1ساعة و 2 دقيقة قبل الساعة 10:56UTC
ريح 5 عقدة من الشرق/الجنوب الشرقي
درجة الحرارة 31°درجة مئوية
الرطوبة 31%
ضغط 1012 hPa
الرؤية: 16.1 كم
سماء صافية

METAR: KEED 151056Z AUTO 11005KT 10SM CLR 31/12 A2987 RMK AO2 SLP077 T03060117 $

زمن: 04:58 (11:58 UTC)

توقعات

تاريخ ووقت الإصدار 38 دقيقة قبل الساعة 11:20UTC
التوقعات صالحة من15 الساعة 12 UTC إلى 16 الساعة 12 UTC
ريح 6 عقدةمن اتجاهات متغيرة
الرؤية: 10 كم
غيوم قليلة على ارتفاع 25000 قدم
من 15 الساعة 1800 UTC
ريح 11 عقدة من الجنوب
الرؤية: 10 كم
غيوم متفرقة على ارتفاع 25000 قدم
من 16 الساعة 0200 UTC
ريح 11 عقدة من الجنوب الغربي
الرؤية: 10 كم
غيوم مفككة على ارتفاع 25000 قدم

TAF: KEED 151120Z 1512/1612 VRB06KT P6SM FEW250 FM151800 19011KT P6SM SCT250 FM160200 23011KT P6SM BKN250

أرصاد الطقس والتوقعات من أكثر من 4000 مطار (تقارير الطقس للمطار METAR والتنبؤ بالطقس بالمطارTAF).

المحطات المتاحة هي النقط الصفراء والحمراء على الخريطة.

حرك المؤشر فوق النقطة لمعرفة اسم المحطة.

ثم انقر لمعرفة أرصاد وتوقعات الطقس.

لتغيير الخارطة: اضغط على الأزرار الخضراء مع رمز الصليب الأسود للتكبير. على الزر الأخضر مع شرطة للتصغير، أو على الأسهم الخضراء للخرائط المجاورة.


METAR-TAF: